Terminal Aerodrome Forecast
Issued by NWS

Home | Current Version | Previous Version | Text Only | Print | Product List | Glossary On
Versions: 1 2 3 4 5 6 7 8 9 10 11 12 13 14 15 16 17 18 19 20 21 22 23 24 25 26
000
FTUS42 KMFL 181453 AAA
TAFOPF
TAF AMD
KOPF 181453Z 1815/1912 14015G22KT P6SM SCT025 BKN250
     FM190000 16008KT P6SM SCT030 BKN120 OVC250
     FM190700 16010KT P6SM VCTS SCT025CB BKN040 OVC100=

USA.gov is the U.S. government's official web portal to all federal, state and local government web resources and services.